Peshawbestown, Michigan
Current Conditions -  °F | °C
As of 3:53 AM on Sunday 26 Oct 2014 (Local Time) from KTVC Reporting Station
Clear Clear  
Wind Chill: 45°   Ceiling: Unl
Heat Index: 49°   Visibility: 10mi
Dew Point: 32°   Wind: 10mph
Humidity: 52%   Direction: 310°NW
Pressure: 29.86"   Gusts: NA
Location:  44.9784°N, 85.6488°W
Report Text: KTVC 260753Z 31009KT 10SM CLR 09/00 A2986 RMK AO2 SLP113 T00940000
Loading
Personal Weather Stations






























Interactive Weather Map
Tropical Storm Tracking
New forecast layout! Learn more

10-Day Weather Forecast

Advertisements
Track Severe Weather on mobile